Time;durP1;ratioP1;P1;durP2;ratioP2;P2;SDS_P1;SDS_P2;PMS_P1;PMS_P2;Temp;Humidity;BMP_temperature;BMP_pressure;BME280_temperature;BME280_humidity;BME280_pressure;Samples;Min_cycle;Max_cycle;Signal;HPM_P1;HPM_P2
2021/04/08 00:01:49;;;;;;;12.25;4.75;;;3.00;99.90;;;;;;5013770;28;20394;-61
2021/04/08 00:04:14;;;;;;;12.70;4.72;;;3.10;99.90;;;;;;5013701;28;20026;-61
2021/04/08 00:06:40;;;;;;;8.77;4.63;;;3.20;99.90;;;;;;5014326;28;20030;-61
2021/04/08 00:09:06;;;;;;;12.35;4.88;;;3.30;99.90;;;;;;5013622;28;20025;-61
2021/04/08 00:11:32;;;;;;;10.75;4.57;;;3.30;99.90;;;;;;5013609;28;20054;-61
2021/04/08 00:13:57;;;;;;;8.75;4.50;;;3.30;99.90;;;;;;5012344;28;20466;-61
2021/04/08 00:16:23;;;;;;;7.65;4.28;;;3.30;99.90;;;;;;5013811;28;20034;-61
2021/04/08 00:18:48;;;;;;;7.78;4.30;;;3.30;99.90;;;;;;5012271;28;20026;-61
2021/04/08 00:21:14;;;;;;;10.40;4.50;;;3.30;99.90;;;;;;5013610;28;20049;-61
2021/04/08 00:23:40;;;;;;;14.15;4.78;;;3.30;99.90;;;;;;5013333;28;20130;-61
2021/04/08 00:26:05;;;;;;;10.15;4.63;;;3.40;99.90;;;;;;5014524;28;20044;-61
2021/04/08 00:28:31;;;;;;;10.02;4.55;;;3.40;99.90;;;;;;5012571;28;20474;-61
2021/04/08 00:30:57;;;;;;;7.97;4.13;;;3.40;99.90;;;;;;5013430;28;20022;-61
2021/04/08 00:33:22;;;;;;;8.60;4.70;;;3.50;99.90;;;;;;5013643;28;20033;-61
2021/04/08 00:35:48;;;;;;;10.98;3.97;;;3.60;99.90;;;;;;5014130;28;20022;-61
2021/04/08 00:38:14;;;;;;;10.93;4.10;;;3.60;99.90;;;;;;5013488;28;20501;-61
2021/04/08 00:40:41;;;;;;;6.40;3.50;;;3.60;99.30;;;;;;5012142;28;20032;-61
2021/04/08 00:43:07;;;;;;;9.15;3.72;;;3.70;99.30;;;;;;5014571;28;20088;-61
2021/04/08 00:45:33;;;;;;;10.63;4.07;;;3.80;98.70;;;;;;5012805;28;20119;-61
2021/04/08 00:47:59;;;;;;;10.48;4.05;;;3.90;99.10;;;;;;5013272;28;20383;-61
2021/04/08 00:50:26;;;;;;;9.32;3.70;;;4.00;98.60;;;;;;5012773;28;20022;-61
2021/04/08 00:53:03;;;;;;;10.10;4.22;;;4.00;98.70;;;;;;5014624;28;20088;-61
2021/04/08 00:55:38;;;;;;;12.40;4.35;;;4.00;99.90;;;;;;5013592;28;20038;-61
2021/04/08 00:58:05;;;;;;;8.45;4.13;;;3.90;99.90;;;;;;5013362;28;20052;-61
2021/04/08 01:00:38;;;;;;;10.10;4.78;;;3.80;99.90;;;;;;5013597;28;20084;-61
2021/04/08 01:03:05;;;;;;;12.02;7.10;;;3.90;99.90;;;;;;5012585;28;20025;-61
2021/04/08 01:05:30;;;;;;;9.68;5.82;;;3.90;99.90;;;;;;5012905;28;20488;-61
2021/04/08 01:07:56;;;;;;;8.95;5.35;;;3.60;99.90;;;;;;5011733;28;20030;-61
2021/04/08 01:10:24;;;;;;;10.80;6.18;;;3.50;99.90;;;;;;5012854;28;20033;-61
2021/04/08 01:12:53;;;;;;;13.57;5.22;;;3.40;99.90;;;;;;5012882;28;20029;-61
2021/04/08 01:15:20;;;;;;;9.98;4.85;;;3.40;99.90;;;;;;5012690;28;20034;-61
2021/04/08 01:18:09;;;;;;;6.97;4.53;;;3.50;99.90;;;;;;5012509;28;20026;-61
2021/04/08 01:21:06;;;;;;;6.53;4.05;;;3.50;99.90;;;;;;5008534;28;20580;-61
2021/04/08 01:23:55;;;;;;;11.68;4.38;;;3.30;99.90;;;;;;5011132;28;20044;-61
2021/04/08 01:26:27;;;;;;;8.07;3.67;;;3.10;99.90;;;;;;5012713;28;20250;-59
2021/04/08 01:29:39;;;;;;;7.05;3.47;;;3.10;99.90;;;;;;5011351;28;20117;-60
2021/04/08 01:32:06;;;;;;;6.00;3.28;;;3.20;99.90;;;;;;5005729;28;20042;-60
2021/04/08 01:34:34;;;;;;;11.45;3.30;;;3.30;99.90;;;;;;5013524;28;20034;-59
2021/04/08 01:37:06;;;;;;;7.65;3.25;;;3.30;99.90;;;;;;5012755;28;20025;-60
2021/04/08 01:39:33;;;;;;;6.38;3.42;;;3.40;99.90;;;;;;5012203;28;20526;-60
2021/04/08 01:41:59;;;;;;;10.32;3.72;;;3.40;99.90;;;;;;5010840;28;20028;-60
2021/04/08 01:44:26;;;;;;;10.25;3.75;;;3.50;99.90;;;;;;5010793;28;20022;-60
2021/04/08 01:46:59;;;;;;;9.68;3.35;;;3.60;99.90;;;;;;5012246;28;20037;-60
2021/04/08 01:49:25;;;;;;;;;;;3.60;99.90;;;;;;5012942;28;20050;-60
2021/04/08 01:51:52;;;;;;;11.30;3.45;;;3.60;99.90;;;;;;5013615;28;19912;-61
2021/04/08 01:54:19;;;;;;;7.75;3.65;;;3.60;99.90;;;;;;5012375;28;20085;-61
2021/04/08 01:56:46;;;;;;;7.18;3.78;;;3.60;99.90;;;;;;5012723;28;20039;-61
2021/04/08 01:59:14;;;;;;;11.02;3.60;;;3.60;99.90;;;;;;5013280;28;20029;-61
2021/04/08 02:01:42;;;;;;;9.73;4.15;;;3.70;99.90;;;;;;5013043;28;20273;-61
2021/04/08 02:04:10;;;;;;;7.65;3.60;;;3.70;99.90;;;;;;5012634;28;20037;-61
2021/04/08 02:06:38;;;;;;;8.85;3.83;;;3.70;99.90;;;;;;5012501;28;20041;-61
2021/04/08 02:09:05;;;;;;;8.93;4.32;;;3.80;99.90;;;;;;5011502;28;20029;-61
2021/04/08 02:11:31;;;;;;;11.52;4.13;;;3.80;99.90;;;;;;5011715;28;20037;-61
2021/04/08 02:13:59;;;;;;;8.18;3.75;;;3.80;99.90;;;;;;5011334;28;20049;-61
2021/04/08 02:16:25;;;;;;;10.40;4.28;;;3.80;99.90;;;;;;5011261;28;20042;-61
2021/04/08 02:18:54;;;;;;;9.85;3.85;;;3.80;99.90;;;;;;5011676;28;20108;-61
2021/04/08 02:21:20;;;;;;;9.07;3.92;;;3.80;99.90;;;;;;5013076;28;20022;-61
2021/04/08 02:23:48;;;;;;;8.57;4.43;;;3.80;99.90;;;;;;5011721;28;20026;-61
2021/04/08 02:26:16;;;;;;;12.95;4.30;;;3.70;99.90;;;;;;5012755;28;20033;-61
2021/04/08 02:28:42;;;;;;;10.23;4.30;;;3.70;99.90;;;;;;5009790;28;20053;-61
2021/04/08 02:31:08;;;;;;;11.02;4.05;;;3.80;99.90;;;;;;5010942;28;20026;-61
2021/04/08 02:33:34;;;;;;;8.18;4.50;;;3.80;99.90;;;;;;5011331;28;20034;-61
2021/04/08 02:36:01;;;;;;;8.98;4.35;;;3.80;99.90;;;;;;5011217;28;20052;-61
2021/04/08 02:38:32;;;;;;;13.88;4.75;;;3.80;99.90;;;;;;5011231;28;20025;-61
2021/04/08 02:40:59;;;;;;;8.68;4.90;;;3.80;99.90;;;;;;5011109;28;20112;-61
2021/04/08 02:43:25;;;;;;;9.95;4.40;;;3.70;99.90;;;;;;5009815;28;20021;-61
2021/04/08 02:45:50;;;;;;;11.98;4.47;;;3.70;99.90;;;;;;5011251;28;20474;-61
2021/04/08 02:48:18;;;;;;;7.95;4.50;;;3.70;99.90;;;;;;5010974;28;20516;-61
2021/04/08 02:50:49;;;;;;;9.68;4.43;;;3.70;99.90;;;;;;5009637;28;20065;-61
2021/04/08 02:53:44;;;;;;;7.90;4.35;;;3.70;99.90;;;;;;5010944;28;20026;-61
2021/04/08 02:56:22;;;;;;;13.82;5.15;;;3.70;99.90;;;;;;5010943;28;20077;-61
2021/04/08 02:58:48;;;;;;;6.20;4.28;;;3.70;99.90;;;;;;5011797;28;20497;-59
2021/04/08 03:01:19;;;;;;;9.52;5.00;;;3.70;99.90;;;;;;5011551;28;20046;-60
2021/04/08 03:03:53;;;;;;;7.00;4.50;;;3.70;99.90;;;;;;5011445;28;20310;-60
2021/04/08 03:06:20;;;;;;;10.13;5.07;;;3.70;99.90;;;;;;5011687;28;20040;-61
2021/04/08 03:08:49;;;;;;;11.65;5.43;;;3.70;99.90;;;;;;5012495;28;20022;-61
2021/04/08 03:11:21;;;;;;;10.40;5.40;;;3.70;99.90;;;;;;5015256;28;20030;-61
2021/04/08 03:13:50;;;;;;;9.65;5.75;;;3.70;99.90;;;;;;5015637;28;20037;-60
2021/04/08 03:16:23;;;;;;;9.32;5.28;;;3.70;99.90;;;;;;5016104;28;20036;-60
2021/04/08 03:18:52;;;;;;;14.40;5.55;;;3.60;99.90;;;;;;5013738;28;20505;-60
2021/04/08 03:21:18;;;;;;;10.73;5.28;;;3.60;99.90;;;;;;5015153;28;20021;-60
2021/04/08 03:23:45;;;;;;;12.82;6.20;;;3.60;99.90;;;;;;5014576;28;20126;-60
2021/04/08 03:26:11;;;;;;;11.13;5.40;;;3.70;99.90;;;;;;5013244;28;20434;-61
2021/04/08 03:28:39;;;;;;;10.93;5.55;;;3.70;99.90;;;;;;5014745;28;20440;-61
2021/04/08 03:31:05;;;;;;;12.77;5.15;;;3.70;99.90;;;;;;5014358;28;20026;-61
2021/04/08 03:33:33;;;;;;;11.73;5.32;;;3.70;99.90;;;;;;5014454;28;20040;-61
2021/04/08 03:36:00;;;;;;;15.32;5.72;;;3.60;99.90;;;;;;5014609;28;20065;-61
2021/04/08 03:38:27;;;;;;;14.15;5.43;;;3.50;99.90;;;;;;5014546;28;20064;-61
2021/04/08 03:40:56;;;;;;;12.25;5.50;;;3.50;99.90;;;;;;5013298;28;20030;-61
2021/04/08 03:43:22;;;;;;;16.30;5.63;;;3.50;99.90;;;;;;5015285;28;20026;-61
2021/04/08 03:45:48;;;;;;;12.40;5.00;;;3.50;99.90;;;;;;5015362;28;20053;-61
2021/04/08 03:48:15;;;;;;;9.65;5.45;;;3.60;99.90;;;;;;5014869;28;20081;-59
2021/04/08 03:50:42;;;;;;;12.75;5.80;;;3.50;99.90;;;;;;5014326;28;20026;-59
2021/04/08 03:53:09;;;;;;;11.02;5.13;;;3.40;99.90;;;;;;5014816;28;20410;-60
2021/04/08 03:55:36;;;;;;;11.27;5.68;;;3.30;99.90;;;;;;5013841;28;20062;-60
2021/04/08 03:58:08;;;;;;;11.95;6.32;;;3.40;99.90;;;;;;5014463;28;20097;-61
2021/04/08 04:00:35;;;;;;;12.60;6.13;;;3.30;99.90;;;;;;5012852;28;20038;-61
2021/04/08 04:03:01;;;;;;;10.77;5.55;;;3.20;99.90;;;;;;5012493;28;20080;-61
2021/04/08 04:05:27;;;;;;;13.18;6.03;;;3.10;99.90;;;;;;5014725;28;20049;-60
2021/04/08 04:07:53;;;;;;;10.73;6.30;;;3.00;99.90;;;;;;5014273;28;20064;-60
2021/04/08 04:10:21;;;;;;;11.13;5.90;;;3.10;99.90;;;;;;5012753;28;20030;-60
2021/04/08 04:12:50;;;;;;;12.82;5.53;;;3.10;99.90;;;;;;5014849;28;20026;-61
2021/04/08 04:15:16;;;;;;;10.52;6.20;;;3.10;99.90;;;;;;5012673;28;20033;-61
2021/04/08 04:17:42;;;;;;;9.70;5.80;;;3.00;99.90;;;;;;5014588;28;20022;-61
2021/04/08 04:20:08;;;;;;;10.43;6.13;;;2.90;99.90;;;;;;5013835;28;20080;-60
2021/04/08 04:22:39;;;;;;;13.75;6.40;;;2.80;99.90;;;;;;5013581;28;20105;-60
2021/04/08 04:25:06;;;;;;;12.70;6.63;;;2.80;99.90;;;;;;5012860;28;20505;-61
2021/04/08 04:27:33;;;;;;;10.32;6.63;;;2.70;99.90;;;;;;5014093;28;20121;-61
2021/04/08 04:29:58;;;;;;;16.67;7.00;;;2.60;99.90;;;;;;5013569;28;20033;-61
2021/04/08 04:32:24;;;;;;;13.52;7.15;;;2.60;99.90;;;;;;5012172;28;20080;-61
2021/04/08 04:34:50;;;;;;;9.38;6.00;;;2.70;99.90;;;;;;5013367;28;20045;-61
2021/04/08 04:37:15;;;;;;;12.73;6.90;;;2.70;99.90;;;;;;5013782;28;20032;-61
2021/04/08 04:39:41;;;;;;;15.52;7.00;;;2.80;99.90;;;;;;5013196;28;20022;-61
2021/04/08 04:42:08;;;;;;;15.77;6.22;;;2.70;99.90;;;;;;5013533;28;20022;-61
2021/04/08 04:44:34;;;;;;;13.98;6.57;;;2.70;99.90;;;;;;5013234;28;20025;-61
2021/04/08 04:47:01;;;;;;;13.13;6.90;;;2.70;99.90;;;;;;5013328;28;20088;-60
2021/04/08 04:49:27;;;;;;;15.85;8.13;;;2.60;99.90;;;;;;5011901;28;20029;-61
2021/04/08 04:51:53;;;;;;;14.20;7.18;;;2.60;99.90;;;;;;5014871;28;20030;-59
2021/04/08 04:54:18;;;;;;;14.02;7.50;;;2.60;99.90;;;;;;5011641;28;20496;-59
2021/04/08 04:56:44;;;;;;;14.38;7.32;;;2.60;99.90;;;;;;5013081;28;20396;-60
2021/04/08 04:59:09;;;;;;;13.77;7.70;;;2.60;99.90;;;;;;5013010;28;20062;-60
2021/04/08 05:01:35;;;;;;;16.33;8.30;;;2.60;99.90;;;;;;5011497;28;20052;-61
2021/04/08 05:04:01;;;;;;;19.00;9.20;;;2.60;99.90;;;;;;5013148;28;20026;-60
2021/04/08 05:06:26;;;;;;;18.88;8.90;;;2.60;99.90;;;;;;5012934;28;20030;-60
2021/04/08 05:08:52;;;;;;;24.40;9.52;;;2.70;99.90;;;;;;5012744;28;20105;-60
2021/04/08 05:11:18;;;;;;;19.55;8.57;;;2.70;99.90;;;;;;5012628;28;20025;-60
2021/04/08 05:13:43;;;;;;;15.45;8.23;;;2.80;99.90;;;;;;5012674;28;20033;-60
2021/04/08 05:16:09;;;;;;;21.52;9.10;;;2.70;99.90;;;;;;5013229;28;20038;-60
2021/04/08 05:18:34;;;;;;;17.23;8.52;;;2.70;99.90;;;;;;5013040;28;20022;-60
2021/04/08 05:21:00;;;;;;;23.35;8.57;;;2.70;99.90;;;;;;5013388;28;20057;-60
2021/04/08 05:23:26;;;;;;;17.13;8.60;;;2.80;99.90;;;;;;5012362;28;20049;-60
2021/04/08 05:25:52;;;;;;;18.20;8.30;;;2.80;99.90;;;;;;5013982;28;20490;-59
2021/04/08 05:28:18;;;;;;;24.77;8.82;;;2.80;99.90;;;;;;5013199;28;20060;-60
2021/04/08 05:30:44;;;;;;;16.33;7.78;;;2.80;99.90;;;;;;5011039;28;20026;-59
2021/04/08 05:33:10;;;;;;;17.88;7.95;;;2.80;99.90;;;;;;5012214;28;20045;-60
2021/04/08 05:35:35;;;;;;;16.50;7.90;;;2.90;99.90;;;;;;5010869;28;20026;-60
2021/04/08 05:38:01;;;;;;;18.85;8.48;;;2.90;99.90;;;;;;5011044;28;20029;-61
2021/04/08 05:40:27;;;;;;;16.02;8.20;;;2.90;99.90;;;;;;5011760;28;20022;-61
2021/04/08 05:42:52;;;;;;;13.18;7.60;;;2.90;99.90;;;;;;5010738;28;20239;-61
2021/04/08 05:45:20;;;;;;;14.98;8.00;;;2.90;99.90;;;;;;5012328;28;20382;-61
2021/04/08 05:47:46;;;;;;;17.42;8.23;;;3.00;99.90;;;;;;5010892;28;20026;-61
2021/04/08 05:50:13;;;;;;;22.02;8.82;;;3.00;99.90;;;;;;5012555;28;20026;-61
2021/04/08 05:52:39;;;;;;;16.75;8.07;;;3.00;99.90;;;;;;5010733;28;20466;-61
2021/04/08 05:55:06;;;;;;;16.45;8.00;;;3.10;99.90;;;;;;5012108;28;20081;-61
2021/04/08 05:57:32;;;;;;;16.30;7.68;;;3.20;99.90;;;;;;5012844;28;20026;-59
2021/04/08 05:59:58;;;;;;;15.38;8.20;;;3.30;99.90;;;;;;5013988;28;20072;-59
2021/04/08 06:02:23;;;;;;;19.27;8.10;;;3.30;99.90;;;;;;5012763;28;20037;-60
2021/04/08 06:04:49;;;;;;;13.80;7.30;;;3.30;99.90;;;;;;5012502;28;20080;-60
2021/04/08 06:07:15;;;;;;;15.23;7.88;;;3.30;99.90;;;;;;5012722;28;20121;-59
2021/04/08 06:09:41;;;;;;;14.55;7.70;;;3.30;99.90;;;;;;5014168;28;20489;-59
2021/04/08 06:12:08;;;;;;;16.70;8.18;;;3.20;99.90;;;;;;5013387;28;20070;-60
2021/04/08 06:14:35;;;;;;;16.58;7.68;;;3.30;99.90;;;;;;5011687;28;20402;-60
2021/04/08 06:17:01;;;;;;;14.93;7.78;;;3.30;99.90;;;;;;5011780;28;20176;-60
2021/04/08 06:19:26;;;;;;;15.57;8.00;;;3.30;99.90;;;;;;5011631;28;20471;-60
2021/04/08 06:21:53;;;;;;;10.73;7.40;;;3.20;99.90;;;;;;5011627;28;20083;-59
2021/04/08 06:24:19;;;;;;;15.82;6.63;;;3.30;99.90;;;;;;5011327;28;20022;-59
2021/04/08 06:26:44;;;;;;;15.40;8.13;;;3.30;99.90;;;;;;5011789;28;20025;-60
2021/04/08 06:29:10;;;;;;;20.95;9.02;;;3.30;99.90;;;;;;5011343;28;20029;-60
2021/04/08 06:31:36;;;;;;;18.35;9.07;;;3.30;99.90;;;;;;5010283;28;20026;-60
2021/04/08 06:34:01;;;;;;;17.20;8.50;;;3.30;99.90;;;;;;5011012;28;20496;-60
2021/04/08 06:36:27;;;;;;;21.08;9.45;;;3.30;99.90;;;;;;5010036;28;20030;-59
2021/04/08 06:38:52;;;;;;;21.00;8.30;;;3.40;99.90;;;;;;5011443;28;20274;-59
2021/04/08 06:41:18;;;;;;;14.88;8.25;;;3.40;99.90;;;;;;5013888;28;20028;-60
2021/04/08 06:43:45;;;;;;;12.65;7.70;;;3.60;99.90;;;;;;5013256;28;20034;-60
2021/04/08 06:46:21;;;;;;;17.35;7.45;;;3.70;99.90;;;;;;5012606;28;20048;-59
2021/04/08 06:48:53;;;;;;;13.27;7.22;;;3.70;99.90;;;;;;5011959;28;20100;-60
2021/04/08 06:51:22;;;;;;;12.27;7.18;;;3.80;99.90;;;;;;5011606;28;20412;-59
2021/04/08 06:53:49;;;;;;;16.92;8.05;;;3.80;99.90;;;;;;5012429;28;20099;-60
2021/04/08 06:56:15;;;;;;;19.80;7.72;;;3.80;99.90;;;;;;5012086;28;20046;-60
2021/04/08 06:58:41;;;;;;;16.38;8.15;;;3.80;99.90;;;;;;5012427;28;20027;-60
2021/04/08 07:01:09;;;;;;;14.20;7.28;;;3.90;99.90;;;;;;5012751;28;20562;-60
2021/04/08 07:03:35;;;;;;;13.93;7.95;;;4.00;99.90;;;;;;5011521;28;20367;-60
2021/04/08 07:06:01;;;;;;;16.38;7.55;;;4.00;99.90;;;;;;5012179;28;20034;-59
2021/04/08 07:08:29;;;;;;;14.70;7.90;;;4.10;99.90;;;;;;5012366;28;20497;-59
2021/04/08 07:10:55;;;;;;;15.23;6.97;;;4.10;99.90;;;;;;5011709;28;20397;-59
2021/04/08 07:13:21;;;;;;;14.30;7.78;;;4.10;99.90;;;;;;5011929;28;20030;-59
2021/04/08 07:15:46;;;;;;;13.23;7.50;;;4.20;99.90;;;;;;5010198;28;20421;-60
2021/04/08 07:18:14;;;;;;;18.20;7.95;;;4.30;99.90;;;;;;5011602;28;20034;-61
2021/04/08 07:20:39;;;;;;;14.00;7.68;;;4.50;99.90;;;;;;5011078;28;20580;-61
2021/04/08 07:23:13;;;;;;;16.33;7.57;;;4.60;99.90;;;;;;5011112;28;20029;-61
2021/04/08 07:26:00;;;;;;;13.88;6.85;;;4.70;99.90;;;;;;5010894;28;20068;-61
2021/04/08 07:28:30;;;;;;;14.77;7.78;;;4.70;99.90;;;;;;5009632;28;20030;-60
2021/04/08 07:30:56;;;;;;;14.35;7.13;;;4.80;99.90;;;;;;5010676;28;20033;-60
2021/04/08 07:33:21;;;;;;;15.50;8.20;;;4.90;99.90;;;;;;5009256;28;20416;-60
2021/04/08 07:35:47;;;;;;;14.98;8.02;;;4.80;99.90;;;;;;5009990;28;20679;-60
2021/04/08 07:38:13;;;;;;;14.55;7.68;;;5.00;99.90;;;;;;5012075;28;20582;-60
2021/04/08 07:40:38;;;;;;;17.15;7.78;;;5.20;99.90;;;;;;5011255;28;20105;-60
2021/04/08 07:43:16;;;;;;;16.92;8.10;;;5.20;99.90;;;;;;5012484;28;20026;-59
2021/04/08 07:45:42;;;;;;;11.60;6.75;;;5.10;99.90;;;;;;5012003;28;20037;-60
2021/04/08 07:48:08;;;;;;;12.88;7.55;;;5.30;99.90;;;;;;5010539;28;20022;-60
2021/04/08 07:50:36;;;;;;;17.52;7.10;;;5.50;99.90;;;;;;5011773;28;20354;-59
2021/04/08 07:53:03;;;;;;;13.10;7.43;;;5.60;99.90;;;;;;5010661;28;20490;-59
2021/04/08 07:55:28;;;;;;;16.05;7.55;;;5.50;99.90;;;;;;5012605;28;20533;-60
2021/04/08 07:58:06;;;;;;;15.48;7.05;;;5.90;99.90;;;;;;5014374;28;20034;-60
2021/04/08 08:01:04;;;;;;;13.82;7.22;;;5.90;99.90;;;;;;5012844;28;20450;-61
2021/04/08 08:03:31;;;;;;;13.52;6.47;;;5.90;99.90;;;;;;5012769;28;20045;-61
2021/04/08 08:06:00;;;;;;;19.50;8.13;;;6.00;99.90;;;;;;5014418;28;20022;-61
2021/04/08 08:08:37;;;;;;;14.40;7.53;;;6.20;99.90;;;;;;5012622;28;20117;-61
2021/04/08 08:11:02;;;;;;;15.45;6.82;;;6.80;99.90;;;;;;5013279;28;20030;-61
2021/04/08 08:13:32;;;;;;;20.08;7.47;;;7.50;99.90;;;;;;5012563;28;20033;-61
2021/04/08 08:15:59;;;;;;;12.02;6.75;;;7.90;99.90;;;;;;5013903;28;20026;-61
2021/04/08 08:18:33;;;;;;;19.55;7.38;;;8.10;99.90;;;;;;5014430;28;20363;-61
2021/04/08 08:21:11;;;;;;;11.32;6.57;;;7.90;99.90;;;;;;5012345;28;20363;-61
2021/04/08 08:23:48;;;;;;;11.55;7.18;;;7.50;99.90;;;;;;5011985;28;20117;-61
2021/04/08 08:26:32;;;;;;;42.05;9.55;;;7.20;99.90;;;;;;5014542;28;20017;-61
2021/04/08 08:29:03;;;;;;;13.38;6.72;;;7.50;99.90;;;;;;5014509;28;20030;-61
2021/04/08 08:31:36;;;;;;;13.82;7.32;;;7.50;99.90;;;;;;5015626;28;20037;-61
2021/04/08 08:34:06;;;;;;;15.85;7.72;;;7.50;99.90;;;;;;5014377;28;20367;-61
2021/04/08 08:36:32;;;;;;;13.60;6.35;;;8.30;99.90;;;;;;5013208;28;20030;-61
2021/04/08 08:39:01;;;;;;;12.02;6.50;;;9.50;98.70;;;;;;5014100;28;20414;-61
2021/04/08 08:41:28;;;;;;;14.20;6.88;;;9.40;96.90;;;;;;5014507;28;20022;-60
2021/04/08 08:43:55;;;;;;;12.40;6.82;;;8.90;97.20;;;;;;5015245;28;20018;-61
2021/04/08 08:46:23;;;;;;;13.55;6.20;;;9.00;97.00;;;;;;5012802;28;20022;-61
2021/04/08 08:48:50;;;;;;;12.90;6.70;;;9.30;95.60;;;;;;5013613;28;20045;-62
2021/04/08 08:51:16;;;;;;;11.07;6.65;;;9.10;96.60;;;;;;5014073;28;20553;-61
2021/04/08 08:53:42;;;;;;;14.43;7.05;;;9.20;95.60;;;;;;5013397;28;20157;-61
2021/04/08 08:56:08;;;;;;;15.75;7.20;;;9.10;95.00;;;;;;5011934;28;20056;-61
2021/04/08 08:58:33;;;;;;;11.25;6.40;;;9.00;96.90;;;;;;5011834;28;20385;-61
2021/04/08 09:01:00;;;;;;;10.40;5.72;;;9.10;92.60;;;;;;5012600;28;20112;-61
2021/04/08 09:03:27;;;;;;;12.35;7.40;;;8.50;93.60;;;;;;5012296;28;20018;-61
2021/04/08 09:05:54;;;;;;;10.52;6.93;;;8.60;93.30;;;;;;5013117;28;20045;-61
2021/04/08 09:08:27;;;;;;;13.57;6.72;;;8.80;94.40;;;;;;5012059;28;20068;-61
2021/04/08 09:10:52;;;;;;;;;;;8.70;92.50;;;;;;5012792;28;20034;-61
2021/04/08 09:13:19;;;;;;;12.10;6.78;;;8.50;90.50;;;;;;5013573;28;20345;-61
2021/04/08 09:15:44;;;;;;;83.28;45.65;;;8.50;90.80;;;;;;5013831;28;20426;-61
2021/04/08 09:18:10;;;;;;;9.82;7.20;;;8.60;91.20;;;;;;5013848;28;20029;-61
2021/04/08 09:20:37;;;;;;;13.27;7.72;;;9.00;91.20;;;;;;5013355;28;20025;-61
2021/04/08 09:23:12;;;;;;;10.55;5.90;;;10.40;88.80;;;;;;5013351;28;20026;-61
2021/04/08 09:25:37;;;;;;;9.50;6.03;;;10.10;75.40;;;;;;5013519;28;20037;-59
2021/04/08 09:28:04;;;;;;;13.63;6.07;;;9.90;73.30;;;;;;5012873;28;20026;-61
2021/04/08 09:30:42;;;;;;;9.52;6.03;;;10.10;73.40;;;;;;5012527;28;20033;-61
2021/04/08 09:33:09;;;;;;;10.88;5.18;;;10.30;69.90;;;;;;5011265;28;20041;-61
2021/04/08 09:35:35;;;;;;;9.57;5.75;;;9.50;66.30;;;;;;5011373;28;20105;-61
2021/04/08 09:38:01;;;;;;;10.07;5.78;;;8.80;65.00;;;;;;5011169;28;20041;-61
2021/04/08 09:40:37;;;;;;;12.13;6.65;;;8.30;68.30;;;;;;5012354;28;20378;-61
2021/04/08 09:43:06;;;;;;;9.60;6.63;;;8.20;69.70;;;;;;5012913;28;20049;-61
2021/04/08 09:45:33;;;;;;;11.32;7.07;;;8.30;68.20;;;;;;5013063;28;20033;-61
2021/04/08 09:48:20;;;;;;;13.85;6.22;;;8.60;66.70;;;;;;5013941;28;20037;-61
2021/04/08 09:50:58;;;;;;;9.73;6.75;;;8.50;67.10;;;;;;5013788;28;20032;-61
2021/04/08 09:53:26;;;;;;;10.65;7.57;;;8.60;68.60;;;;;;5012601;28;20080;-61
2021/04/08 09:56:02;;;;;;;9.50;7.32;;;8.80;64.70;;;;;;5011905;28;20048;-61
2021/04/08 09:58:32;;;;;;;9.13;6.75;;;9.00;62.90;;;;;;5012190;28;20072;-61
2021/04/08 10:01:00;;;;;;;9.82;6.93;;;9.00;63.20;;;;;;5012908;28;20088;-61
2021/04/08 10:03:43;;;;;;;9.05;6.30;;;9.10;63.60;;;;;;5012950;28;20053;-62
2021/04/08 10:06:19;;;;;;;9.45;7.20;;;9.00;62.00;;;;;;5011141;28;20517;-61
2021/04/08 10:08:46;;;;;;;9.65;6.88;;;9.30;64.10;;;;;;5010559;28;20033;-61
2021/04/08 10:11:13;;;;;;;11.18;6.85;;;9.00;63.00;;;;;;5011557;28;20127;-61
2021/04/08 10:13:41;;;;;;;12.38;7.30;;;8.90;66.00;;;;;;5010410;28;20025;-61
2021/04/08 10:16:15;;;;;;;9.45;7.22;;;8.70;67.30;;;;;;5010356;28;20572;-61
2021/04/08 10:18:42;;;;;;;10.10;7.35;;;9.10;65.00;;;;;;5011116;28;20038;-61
2021/04/08 10:21:17;;;;;;;8.57;7.13;;;9.10;63.60;;;;;;5011413;28;20036;-61
2021/04/08 10:23:47;;;;;;;10.88;7.32;;;9.40;62.00;;;;;;5011180;28;20098;-61
2021/04/08 10:26:17;;;;;;;11.25;7.35;;;9.50;61.30;;;;;;5011576;28;20029;-61
2021/04/08 10:28:46;;;;;;;9.95;6.97;;;9.60;59.40;;;;;;5011288;28;20026;-61
2021/04/08 10:31:17;;;;;;;13.10;7.88;;;9.70;60.00;;;;;;5010115;28;20123;-61
2021/04/08 10:33:44;;;;;;;11.07;7.90;;;9.50;59.70;;;;;;5010127;28;20029;-61
2021/04/08 10:36:10;;;;;;;7.25;6.03;;;9.70;61.00;;;;;;5010056;28;20084;-61
2021/04/08 10:38:35;;;;;;;9.25;8.07;;;9.70;59.20;;;;;;5011534;28;20037;-61
2021/04/08 10:41:02;;;;;;;13.45;7.72;;;9.30;59.10;;;;;;5011337;28;20378;-61
2021/04/08 10:43:28;;;;;;;13.00;7.55;;;10.10;59.30;;;;;;5009933;28;20474;-61
2021/04/08 10:45:58;;;;;;;9.88;7.80;;;11.00;56.50;;;;;;5009996;28;20033;-61
2021/04/08 10:48:26;;;;;;;8.73;7.65;;;11.00;56.90;;;;;;5011383;28;20490;-61
2021/04/08 10:50:53;;;;;;;11.95;7.88;;;10.40;58.10;;;;;;5011367;28;20018;-61
2021/04/08 10:53:20;;;;;;;11.63;8.63;;;10.00;57.80;;;;;;5011020;28;20038;-60
2021/04/08 10:55:47;;;;;;;10.68;7.85;;;9.60;58.10;;;;;;5010742;28;20049;-61
2021/04/08 10:58:24;;;;;;;11.30;8.32;;;9.90;58.20;;;;;;5011250;28;20050;-61
2021/04/08 11:00:54;;;;;;;12.63;8.85;;;10.40;57.60;;;;;;5011286;28;20045;-61
2021/04/08 11:03:20;;;;;;;12.07;8.85;;;10.60;56.50;;;;;;5010921;28;20033;-61
2021/04/08 11:05:46;;;;;;;12.25;8.80;;;10.10;56.80;;;;;;5011159;28;20103;-61
2021/04/08 11:08:12;;;;;;;14.45;8.98;;;9.80;57.20;;;;;;5010127;28;20056;-60
2021/04/08 11:10:38;;;;;;;13.00;9.02;;;9.70;58.70;;;;;;5011057;28;20421;-61
2021/04/08 11:13:05;;;;;;;12.35;9.25;;;10.10;59.00;;;;;;5009338;28;20049;-61
2021/04/08 11:15:36;;;;;;;10.50;8.50;;;10.30;58.10;;;;;;5009927;28;20029;-61
2021/04/08 11:18:06;;;;;;;10.10;8.45;;;10.40;57.80;;;;;;5010102;28;20072;-61
2021/04/08 11:20:41;;;;;;;10.07;6.95;;;10.90;57.00;;;;;;5011159;28;20020;-61
2021/04/08 11:23:08;;;;;;;12.98;8.57;;;11.00;55.20;;;;;;5011170;28;20018;-61
2021/04/08 11:25:34;;;;;;;9.68;8.50;;;10.20;56.20;;;;;;5011349;28;20371;-61
2021/04/08 11:28:02;;;;;;;15.65;9.35;;;10.10;57.80;;;;;;5011306;28;20030;-60
2021/04/08 11:30:31;;;;;;;11.63;8.57;;;9.90;56.60;;;;;;5012695;28;20076;-61
2021/04/08 11:32:58;;;;;;;12.63;9.15;;;10.30;57.40;;;;;;5013482;28;20026;-61
2021/04/08 11:35:45;;;;;;;11.05;8.77;;;10.60;57.50;;;;;;5014832;28;20080;-61
2021/04/08 11:38:17;;;;;;;9.93;8.63;;;10.40;56.20;;;;;;5014625;28;20026;-61
2021/04/08 11:40:44;;;;;;;10.77;8.80;;;10.80;55.10;;;;;;5014225;28;20080;-61
2021/04/08 11:43:27;;;;;;;13.20;9.25;;;11.20;56.60;;;;;;5014465;28;20045;-61
2021/04/08 11:45:59;;;;;;;11.35;9.07;;;11.90;55.00;;;;;;5014422;28;20113;-61
2021/04/08 11:48:27;;;;;;;10.75;8.63;;;11.30;54.10;;;;;;5014516;28;20028;-61
2021/04/08 11:51:03;;;;;;;10.45;8.30;;;11.20;54.70;;;;;;5014415;28;20534;-61
2021/04/08 11:53:33;;;;;;;14.20;7.90;;;11.20;55.90;;;;;;5013844;28;20025;-60
2021/04/08 11:55:58;;;;;;;13.75;9.13;;;11.30;53.70;;;;;;5014250;28;20053;-60
2021/04/08 11:58:29;;;;;;;12.52;9.13;;;11.30;54.00;;;;;;5014459;28;20029;-61
2021/04/08 12:01:14;;;;;;;14.02;8.90;;;10.80;55.10;;;;;;5012815;28;20117;-61
2021/04/08 12:03:42;;;;;;;11.52;9.05;;;11.60;56.00;;;;;;5014167;28;20049;-61
2021/04/08 12:06:17;;;;;;;11.85;8.73;;;12.20;55.50;;;;;;5014698;28;20022;-61
2021/04/08 12:08:45;;;;;;;12.10;8.48;;;12.40;51.90;;;;;;5013856;28;20052;-61
2021/04/08 12:11:15;;;;;;;14.05;9.20;;;12.00;54.40;;;;;;5013688;28;20040;-61
2021/04/08 12:13:42;;;;;;;13.30;9.35;;;11.70;54.20;;;;;;5013560;28;20044;-61
2021/04/08 12:16:25;;;;;;;11.25;8.68;;;12.10;54.80;;;;;;5014168;28;20086;-61
2021/04/08 12:18:51;;;;;;;8.90;7.93;;;12.20;52.80;;;;;;5013958;28;20113;-61
2021/04/08 12:21:17;;;;;;;12.55;8.85;;;12.40;51.60;;;;;;5012535;28;20037;-61
2021/04/08 12:23:43;;;;;;;11.43;8.80;;;12.20;51.70;;;;;;5013599;28;20094;-61
2021/04/08 12:26:11;;;;;;;13.93;8.95;;;12.20;52.90;;;;;;5014426;28;20042;-61
2021/04/08 12:28:38;;;;;;;12.82;9.52;;;12.50;52.00;;;;;;5013423;28;20018;-61
2021/04/08 12:31:04;;;;;;;13.60;8.85;;;12.70;50.80;;;;;;5012217;28;20056;-61
2021/04/08 12:33:29;;;;;;;11.40;8.80;;;12.70;51.40;;;;;;5013544;28;20053;-61
2021/04/08 12:35:57;;;;;;;14.27;8.98;;;13.20;50.70;;;;;;5013438;28;20029;-61
2021/04/08 12:38:23;;;;;;;13.23;9.20;;;12.90;50.40;;;;;;5013375;28;20521;-61
2021/04/08 12:40:49;;;;;;;12.77;9.40;;;13.10;51.30;;;;;;5012881;28;20025;-61
2021/04/08 12:43:15;;;;;;;10.20;9.20;;;13.40;49.80;;;;;;5013963;28;20096;-61
2021/04/08 12:45:41;;;;;;;15.75;9.32;;;13.10;50.80;;;;;;5011912;28;20089;-61
2021/04/08 12:48:07;;;;;;;11.45;8.60;;;13.80;49.20;;;;;;5012392;28;20018;-61
2021/04/08 12:50:34;;;;;;;9.80;8.30;;;15.50;47.80;;;;;;5013169;28;20029;-61
2021/04/08 12:52:59;;;;;;;10.30;9.05;;;14.40;46.20;;;;;;5013344;28;20137;-61
2021/04/08 12:55:27;;;;;;;12.43;8.60;;;13.60;47.60;;;;;;5011622;28;20188;-61